createdAt,value
2018-05-15T00:16:14.949Z,100.00
2018-05-15T00:36:44.776Z,100.00
2018-05-15T00:57:17.167Z,100.00
2018-05-15T01:17:47.413Z,100.00
2018-05-15T01:38:18.680Z,100.00
2018-05-15T01:58:48.199Z,100.00
2018-05-15T02:19:18.536Z,100.00
2018-05-15T02:39:48.065Z,100.00
2018-05-15T03:00:18.518Z,100.00
2018-05-15T03:20:48.951Z,90.35
2018-05-15T04:23:02.166Z,50.49
2018-05-15T04:43:33.036Z,47.65
2018-05-15T15:53:47.690Z,63.67
2018-05-15T15:56:24.995Z,63.41
2018-05-15T15:58:54.043Z,63.56
2018-05-15T16:01:26.095Z,63.94
2018-05-15T16:03:56.285Z,63.13
2018-05-15T16:06:31.588Z,64.06
2018-05-15T16:09:02.298Z,64.39
2018-05-15T16:11:31.274Z,65.07
2018-05-15T16:14:01.153Z,65.70
2018-05-15T16:16:37.080Z,66.12
2018-05-15T16:19:06.768Z,67.19
2018-05-15T16:21:35.827Z,67.17
2018-05-15T16:24:04.971Z,68.09
2018-05-15T16:26:34.987Z,69.04
2018-05-15T16:29:07.785Z,69.75
2018-05-15T16:31:36.775Z,70.14
2018-05-15T16:36:44.214Z,71.95
2018-05-15T16:39:13.220Z,73.10
2018-05-15T16:41:42.315Z,73.66
2018-05-15T16:44:11.314Z,74.14
2018-05-15T16:46:40.401Z,75.11
2018-05-15T16:51:43.943Z,75.63
2018-05-15T16:54:14.073Z,74.87
2018-05-15T16:56:43.040Z,73.46
2018-05-15T16:59:12.157Z,73.08
2018-05-15T17:01:41.191Z,73.86
2018-05-15T17:04:10.394Z,74.10
2018-05-15T17:06:39.388Z,74.91
2018-05-15T17:09:08.584Z,74.79
2018-05-15T17:11:40.094Z,75.13
2018-05-15T17:14:09.095Z,76.20
2018-05-15T17:16:38.068Z,76.27
2018-05-15T17:19:07.220Z,76.51
2018-05-15T17:21:38.959Z,76.73
2018-05-15T17:24:07.939Z,76.99
2018-05-15T17:26:37.033Z,77.29
2018-05-15T17:29:06.027Z,77.09
2018-05-15T17:31:35.032Z,77.36
2018-05-15T17:34:05.022Z,77.73
2018-05-15T17:36:34.216Z,78.00
2018-05-15T17:39:05.112Z,78.00
2018-05-15T17:41:34.073Z,77.81
2018-05-15T17:44:03.249Z,78.19
2018-05-15T17:46:33.363Z,78.71
2018-05-15T17:49:02.371Z,79.05
2018-05-15T17:51:31.370Z,78.88
2018-05-15T17:54:00.376Z,78.55
2018-05-15T17:56:30.536Z,78.20
2018-05-15T17:58:59.595Z,78.52
2018-05-15T18:01:29.465Z,78.53
2018-05-15T18:03:58.441Z,78.88
2018-05-15T18:06:27.406Z,79.24
2018-05-15T18:11:31.831Z,79.97
2018-05-15T18:14:01.820Z,80.33
2018-05-15T18:16:31.775Z,80.72
2018-05-15T18:19:00.799Z,80.79
2018-05-15T18:21:30.700Z,81.38
2018-05-15T18:24:01.424Z,81.47
2018-05-15T18:26:31.236Z,81.43
2018-05-15T18:29:03.507Z,81.57
2018-05-15T18:31:32.424Z,82.04
2018-05-15T18:34:06.585Z,82.62
2018-05-15T18:36:35.733Z,82.57
2018-05-15T18:39:07.537Z,82.49
2018-05-15T18:41:36.415Z,82.77
2018-05-15T18:44:05.630Z,82.69
2018-05-15T18:46:34.784Z,82.92
2018-05-15T18:49:05.143Z,83.64
2018-05-15T18:51:34.118Z,84.00
2018-05-15T18:54:06.434Z,84.14
2018-05-15T18:56:35.949Z,84.28
2018-05-15T18:59:04.927Z,83.97
2018-05-15T19:01:34.858Z,84.24
2018-05-15T19:04:04.026Z,84.24
2018-05-15T19:06:32.972Z,83.74
2018-05-15T19:09:01.989Z,83.06
2018-05-15T19:11:31.037Z,82.75
2018-05-15T19:14:00.123Z,81.37
2018-05-15T19:16:29.023Z,81.25
2018-05-15T19:18:59.159Z,81.07
2018-05-15T19:21:28.246Z,81.60
2018-05-15T19:23:57.446Z,81.47
2018-05-15T19:26:26.442Z,82.01
2018-05-15T19:28:56.401Z,82.39
2018-05-15T19:31:30.851Z,83.12
2018-05-15T19:34:00.436Z,83.37
2018-05-15T19:36:32.250Z,83.96
2018-05-15T19:39:06.559Z,83.88
2018-05-15T19:41:39.252Z,84.34
2018-05-15T19:44:09.058Z,83.56
2018-05-15T19:46:39.074Z,83.86
2018-05-15T19:49:08.410Z,83.72
2018-05-15T19:51:37.441Z,83.42
2018-05-15T19:54:06.819Z,83.51
2018-05-15T19:59:10.596Z,83.77
2018-05-15T20:01:42.254Z,83.66
2018-05-15T20:04:13.870Z,83.21
2018-05-15T20:06:42.844Z,82.12
2018-05-15T20:09:11.972Z,84.11
2018-05-15T20:11:40.925Z,84.42
2018-05-15T20:14:11.063Z,84.44
2018-05-15T20:16:40.655Z,84.94
2018-05-15T20:19:12.003Z,84.81
2018-05-15T20:21:41.058Z,84.60
2018-05-15T20:24:09.999Z,84.95
2018-05-15T20:26:39.090Z,85.24
2018-05-15T20:29:08.454Z,85.59
2018-05-15T20:31:37.831Z,85.45
2018-05-15T20:34:06.898Z,85.39
2018-05-15T20:36:35.878Z,85.39
2018-05-15T20:39:05.086Z,84.69
2018-05-15T20:41:34.384Z,85.09
2018-05-15T20:44:03.388Z,84.82
2018-05-15T20:46:32.339Z,84.18
2018-05-15T20:49:02.188Z,84.78
2018-05-15T20:51:32.206Z,85.07
2018-05-15T20:54:01.301Z,85.17
2018-05-15T20:56:32.671Z,85.46
2018-05-15T20:59:01.887Z,85.31
2018-05-15T21:01:30.942Z,85.22
2018-05-15T21:04:00.149Z,85.37
2018-05-15T21:06:29.205Z,85.94
2018-05-15T21:08:58.152Z,86.07
2018-05-15T21:11:27.190Z,85.75
2018-05-15T21:13:57.349Z,85.64
2018-05-15T21:16:26.555Z,85.36
2018-05-15T21:18:55.644Z,85.06
2018-05-15T21:21:24.538Z,85.12
2018-05-15T21:23:53.534Z,84.75
2018-05-15T21:26:24.315Z,84.50
2018-05-15T21:28:53.520Z,84.41
2018-05-15T21:31:23.583Z,84.43
2018-05-15T21:36:29.335Z,84.38
2018-05-15T21:38:59.020Z,84.06
2018-05-15T21:41:32.569Z,84.14
2018-05-15T21:44:01.574Z,84.48
2018-05-15T21:46:30.717Z,84.83
2018-05-15T21:49:00.705Z,84.75
2018-05-15T21:51:29.636Z,85.09
2018-05-15T21:53:58.795Z,85.65
2018-05-15T21:56:27.968Z,85.89
2018-05-15T21:58:57.819Z,86.19
2018-05-15T22:01:27.521Z,86.44
2018-05-15T22:04:01.197Z,86.95
2018-05-15T22:06:31.124Z,87.33
2018-05-15T22:09:01.154Z,87.42
2018-05-15T22:11:30.621Z,87.43
2018-05-15T22:14:17.996Z,87.52
2018-05-15T22:17:06.114Z,87.55
2018-05-15T22:19:52.923Z,87.79
2018-05-15T22:22:27.228Z,88.25
2018-05-15T22:24:55.869Z,88.89
2018-05-15T22:27:25.052Z,88.99
2018-05-15T22:29:54.016Z,88.89
2018-05-15T22:32:23.109Z,89.09
2018-05-15T22:34:52.102Z,89.23
2018-05-15T22:37:23.002Z,89.62
2018-05-15T22:39:52.009Z,89.80
2018-05-15T22:42:20.930Z,89.90
2018-05-15T22:44:51.545Z,89.98
2018-05-15T22:47:20.662Z,89.75
2018-05-15T22:49:50.675Z,90.58
2018-05-15T22:52:19.665Z,91.16
2018-05-15T22:54:48.560Z,90.82
2018-05-15T22:57:17.869Z,91.13
2018-05-15T22:59:47.653Z,91.50
2018-05-15T23:02:16.569Z,92.03
2018-05-15T23:04:45.605Z,91.78
2018-05-15T23:07:16.408Z,91.95
2018-05-15T23:09:45.362Z,91.84
2018-05-15T23:12:14.320Z,91.56
2018-05-15T23:17:18.523Z,91.17
2018-05-15T23:19:47.475Z,91.17
2018-05-15T23:22:28.899Z,91.65
2018-05-15T23:24:59.113Z,91.82
2018-05-15T23:27:28.870Z,92.53
2018-05-15T23:30:02.545Z,91.46
2018-05-15T23:32:31.578Z,92.33
2018-05-15T23:35:00.620Z,92.33
2018-05-15T23:37:29.715Z,92.32
2018-05-15T23:40:01.378Z,92.61
2018-05-15T23:42:32.315Z,92.78
2018-05-15T23:45:02.208Z,92.80
2018-05-15T23:47:31.127Z,92.68
2018-05-15T23:50:04.832Z,92.51
2018-05-15T23:52:33.883Z,92.47
2018-05-15T23:55:02.817Z,91.94
2018-05-15T23:57:31.910Z,91.63
